sensor_id;sensor_type;location;lat;lon;timestamp;temperature;humidity
4695;DHT22;2361;49.540;8.390;2022-09-09T00:01:46;17.20;99.90
4695;DHT22;2361;49.540;8.390;2022-09-09T00:04:29;17.20;99.90
4695;DHT22;2361;49.540;8.390;2022-09-09T00:16:07;17.20;99.90
4695;DHT22;2361;49.540;8.390;2022-09-09T00:21:18;17.30;99.90
4695;DHT22;2361;49.540;8.390;2022-09-09T00:23:52;17.40;99.90
4695;DHT22;2361;49.540;8.390;2022-09-09T00:26:48;17.40;99.90
4695;DHT22;2361;49.540;8.390;2022-09-09T00:29:35;17.30;99.90
4695;DHT22;2361;49.540;8.390;2022-09-09T00:32:29;17.20;99.90
4695;DHT22;2361;49.540;8.390;2022-09-09T00:35:04;17.30;99.90
4695;DHT22;2361;49.540;8.390;2022-09-09T00:37:37;17.40;99.90
4695;DHT22;2361;49.540;8.390;2022-09-09T00:40:25;17.40;99.90
4695;DHT22;2361;49.540;8.390;2022-09-09T00:52:23;17.50;99.90
4695;DHT22;2361;49.540;8.390;2022-09-09T00:57:58;17.60;99.90
4695;DHT22;2361;49.540;8.390;2022-09-09T01:00:30;17.60;99.90
4695;DHT22;2361;49.540;8.390;2022-09-09T01:03:34;17.50;99.90
4695;DHT22;2361;49.540;8.390;2022-09-09T01:06:30;17.40;99.90
4695;DHT22;2361;49.540;8.390;2022-09-09T01:17:24;17.10;99.90
4695;DHT22;2361;49.540;8.390;2022-09-09T01:20:12;17.10;99.90
4695;DHT22;2361;49.540;8.390;2022-09-09T01:23:21;17.10;99.90
4695;DHT22;2361;49.540;8.390;2022-09-09T01:26:21;17.10;99.90
4695;DHT22;2361;49.540;8.390;2022-09-09T01:28:51;17.10;99.90
4695;DHT22;2361;49.540;8.390;2022-09-09T01:31:36;17.10;99.90
4695;DHT22;2361;49.540;8.390;2022-09-09T01:34:25;17.20;99.90
4695;DHT22;2361;49.540;8.390;2022-09-09T01:37:06;17.20;99.90
4695;DHT22;2361;49.540;8.390;2022-09-09T01:39:36;17.00;99.90
4695;DHT22;2361;49.540;8.390;2022-09-09T01:42:07;17.00;99.90
4695;DHT22;2361;49.540;8.390;2022-09-09T01:44:36;17.00;99.90
4695;DHT22;2361;49.540;8.390;2022-09-09T01:47:05;17.00;99.90
4695;DHT22;2361;49.540;8.390;2022-09-09T01:49:32;16.90;99.90
4695;DHT22;2361;49.540;8.390;2022-09-09T01:51:59;16.90;99.90
4695;DHT22;2361;49.540;8.390;2022-09-09T01:54:28;16.90;99.90
4695;DHT22;2361;49.540;8.390;2022-09-09T01:57:01;16.90;99.90
4695;DHT22;2361;49.540;8.390;2022-09-09T01:59:49;17.00;99.90
4695;DHT22;2361;49.540;8.390;2022-09-09T02:02:29;16.90;99.90
4695;DHT22;2361;49.540;8.390;2022-09-09T02:08:26;16.90;99.90
4695;DHT22;2361;49.540;8.390;2022-09-09T02:11:13;16.90;99.90
4695;DHT22;2361;49.540;8.390;2022-09-09T02:13:46;16.90;99.90
4695;DHT22;2361;49.540;8.390;2022-09-09T02:17:17;16.90;99.90
4695;DHT22;2361;49.540;8.390;2022-09-09T02:19:48;16.90;99.90
4695;DHT22;2361;49.540;8.390;2022-09-09T02:22:19;17.00;99.90
4695;DHT22;2361;49.540;8.390;2022-09-09T02:24:50;17.00;99.90
4695;DHT22;2361;49.540;8.390;2022-09-09T02:27:20;17.00;99.90
4695;DHT22;2361;49.540;8.390;2022-09-09T02:29:49;17.00;99.90
4695;DHT22;2361;49.540;8.390;2022-09-09T02:32:23;17.10;99.90
4695;DHT22;2361;49.540;8.390;2022-09-09T02:34:55;17.20;99.90
4695;DHT22;2361;49.540;8.390;2022-09-09T02:37:29;17.20;99.90
4695;DHT22;2361;49.540;8.390;2022-09-09T02:40:00;17.20;99.90
4695;DHT22;2361;49.540;8.390;2022-09-09T02:42:28;17.20;99.90
4695;DHT22;2361;49.540;8.390;2022-09-09T02:44:55;17.20;99.90
4695;DHT22;2361;49.540;8.390;2022-09-09T02:47:36;17.20;99.90
4695;DHT22;2361;49.540;8.390;2022-09-09T02:58:33;17.10;99.90
4695;DHT22;2361;49.540;8.390;2022-09-09T03:01:00;17.10;99.90
4695;DHT22;2361;49.540;8.390;2022-09-09T03:03:29;17.00;99.90
4695;DHT22;2361;49.540;8.390;2022-09-09T03:05:56;17.00;99.90
4695;DHT22;2361;49.540;8.390;2022-09-09T03:08:23;17.00;99.90
4695;DHT22;2361;49.540;8.390;2022-09-09T03:10:50;16.90;99.90
4695;DHT22;2361;49.540;8.390;2022-09-09T03:13:18;16.90;99.90
4695;DHT22;2361;49.540;8.390;2022-09-09T03:15:45;16.80;99.90
4695;DHT22;2361;49.540;8.390;2022-09-09T03:18:14;16.70;99.90
4695;DHT22;2361;49.540;8.390;2022-09-09T03:20:42;16.70;99.90
4695;DHT22;2361;49.540;8.390;2022-09-09T03:23:09;16.70;99.90
4695;DHT22;2361;49.540;8.390;2022-09-09T03:25:47;16.60;99.90
4695;DHT22;2361;49.540;8.390;2022-09-09T03:28:15;16.60;99.90
4695;DHT22;2361;49.540;8.390;2022-09-09T03:30:42;16.60;99.90
4695;DHT22;2361;49.540;8.390;2022-09-09T03:33:09;16.60;99.90
4695;DHT22;2361;49.540;8.390;2022-09-09T03:35:35;16.60;99.90
4695;DHT22;2361;49.540;8.390;2022-09-09T03:38:02;16.50;99.90
4695;DHT22;2361;49.540;8.390;2022-09-09T03:40:29;16.50;99.90
4695;DHT22;2361;49.540;8.390;2022-09-09T03:42:57;16.40;99.90
4695;DHT22;2361;49.540;8.390;2022-09-09T03:45:24;16.50;99.90
4695;DHT22;2361;49.540;8.390;2022-09-09T03:47:51;16.50;99.90
4695;DHT22;2361;49.540;8.390;2022-09-09T03:50:18;16.50;99.90
4695;DHT22;2361;49.540;8.390;2022-09-09T03:52:45;16.50;99.90
4695;DHT22;2361;49.540;8.390;2022-09-09T03:55:12;16.40;99.90
4695;DHT22;2361;49.540;8.390;2022-09-09T03:57:39;16.30;99.90
4695;DHT22;2361;49.540;8.390;2022-09-09T04:00:07;16.20;99.90
4695;DHT22;2361;49.540;8.390;2022-09-09T04:02:35;16.20;99.90
4695;DHT22;2361;49.540;8.390;2022-09-09T04:05:02;16.20;99.90
4695;DHT22;2361;49.540;8.390;2022-09-09T04:07:29;16.20;99.90
4695;DHT22;2361;49.540;8.390;2022-09-09T04:09:56;16.10;99.90
4695;DHT22;2361;49.540;8.390;2022-09-09T04:12:23;16.10;99.90
4695;DHT22;2361;49.540;8.390;2022-09-09T04:14:50;16.10;99.90
4695;DHT22;2361;49.540;8.390;2022-09-09T04:17:19;16.10;99.90
4695;DHT22;2361;49.540;8.390;2022-09-09T04:19:46;16.10;99.90
4695;DHT22;2361;49.540;8.390;2022-09-09T04:22:13;16.10;99.90
4695;DHT22;2361;49.540;8.390;2022-09-09T04:24:40;16.00;99.90
4695;DHT22;2361;49.540;8.390;2022-09-09T04:27:13;16.10;99.90
4695;DHT22;2361;49.540;8.390;2022-09-09T04:29:40;16.10;99.90
4695;DHT22;2361;49.540;8.390;2022-09-09T04:32:07;16.10;99.90
4695;DHT22;2361;49.540;8.390;2022-09-09T04:34:34;16.10;99.90
4695;DHT22;2361;49.540;8.390;2022-09-09T04:37:01;16.20;99.90
4695;DHT22;2361;49.540;8.390;2022-09-09T04:39:28;16.20;99.90
4695;DHT22;2361;49.540;8.390;2022-09-09T04:41:56;16.30;99.90
4695;DHT22;2361;49.540;8.390;2022-09-09T04:44:23;16.20;99.90
4695;DHT22;2361;49.540;8.390;2022-09-09T04:46:50;16.30;99.90
4695;DHT22;2361;49.540;8.390;2022-09-09T04:49:16;16.50;99.90
4695;DHT22;2361;49.540;8.390;2022-09-09T04:51:44;16.40;99.90
4695;DHT22;2361;49.540;8.390;2022-09-09T04:54:15;16.40;99.90
4695;DHT22;2361;49.540;8.390;2022-09-09T04:56:42;16.40;99.90
4695;DHT22;2361;49.540;8.390;2022-09-09T04:59:09;16.50;99.90
4695;DHT22;2361;49.540;8.390;2022-09-09T05:01:36;16.50;99.90
4695;DHT22;2361;49.540;8.390;2022-09-09T05:04:03;16.50;99.90
4695;DHT22;2361;49.540;8.390;2022-09-09T05:06:30;16.40;99.90
4695;DHT22;2361;49.540;8.390;2022-09-09T05:09:00;16.40;99.90
4695;DHT22;2361;49.540;8.390;2022-09-09T05:11:32;16.40;99.90
4695;DHT22;2361;49.540;8.390;2022-09-09T05:14:02;16.30;99.90
4695;DHT22;2361;49.540;8.390;2022-09-09T05:16:30;16.30;99.90
4695;DHT22;2361;49.540;8.390;2022-09-09T05:18:57;16.20;99.90
4695;DHT22;2361;49.540;8.390;2022-09-09T05:21:25;16.20;99.90
4695;DHT22;2361;49.540;8.390;2022-09-09T05:23:53;16.30;99.90
4695;DHT22;2361;49.540;8.390;2022-09-09T05:26:21;16.40;99.90
4695;DHT22;2361;49.540;8.390;2022-09-09T05:28:49;16.50;99.90
4695;DHT22;2361;49.540;8.390;2022-09-09T05:31:17;16.60;99.90
4695;DHT22;2361;49.540;8.390;2022-09-09T05:33:46;16.60;99.90
4695;DHT22;2361;49.540;8.390;2022-09-09T05:36:16;16.70;99.90
4695;DHT22;2361;49.540;8.390;2022-09-09T05:38:45;16.70;99.90
4695;DHT22;2361;49.540;8.390;2022-09-09T05:41:13;16.70;99.90
4695;DHT22;2361;49.540;8.390;2022-09-09T05:43:44;16.80;99.90
4695;DHT22;2361;49.540;8.390;2022-09-09T05:46:14;16.70;99.90
4695;DHT22;2361;49.540;8.390;2022-09-09T05:48:44;16.80;99.90
4695;DHT22;2361;49.540;8.390;2022-09-09T05:51:16;16.80;99.90
4695;DHT22;2361;49.540;8.390;2022-09-09T05:53:45;16.80;99.90
4695;DHT22;2361;49.540;8.390;2022-09-09T05:56:17;16.70;99.90
4695;DHT22;2361;49.540;8.390;2022-09-09T05:58:53;16.80;99.90
4695;DHT22;2361;49.540;8.390;2022-09-09T06:01:22;16.80;99.90
4695;DHT22;2361;49.540;8.390;2022-09-09T06:03:53;16.90;99.90
4695;DHT22;2361;49.540;8.390;2022-09-09T06:06:30;16.80;99.90
4695;DHT22;2361;49.540;8.390;2022-09-09T06:08:59;16.90;99.90
4695;DHT22;2361;49.540;8.390;2022-09-09T06:11:29;16.90;99.90
4695;DHT22;2361;49.540;8.390;2022-09-09T06:14:00;17.00;99.90
4695;DHT22;2361;49.540;8.390;2022-09-09T06:16:28;17.00;99.90
4695;DHT22;2361;49.540;8.390;2022-09-09T06:18:56;17.10;99.90
4695;DHT22;2361;49.540;8.390;2022-09-09T06:21:34;17.70;99.90
4695;DHT22;2361;49.540;8.390;2022-09-09T06:24:04;18.70;99.90
4695;DHT22;2361;49.540;8.390;2022-09-09T06:26:37;20.00;99.90
4695;DHT22;2361;49.540;8.390;2022-09-09T06:29:07;21.30;99.90
4695;DHT22;2361;49.540;8.390;2022-09-09T06:31:36;22.70;99.90
4695;DHT22;2361;49.540;8.390;2022-09-09T06:34:07;24.00;99.90
4695;DHT22;2361;49.540;8.390;2022-09-09T06:36:36;24.50;99.90
4695;DHT22;2361;49.540;8.390;2022-09-09T06:39:04;24.60;99.90
4695;DHT22;2361;49.540;8.390;2022-09-09T06:41:39;24.60;99.90
4695;DHT22;2361;49.540;8.390;2022-09-09T06:44:06;24.00;99.90
4695;DHT22;2361;49.540;8.390;2022-09-09T06:46:33;24.00;99.90
4695;DHT22;2361;49.540;8.390;2022-09-09T06:49:02;24.20;99.90
4695;DHT22;2361;49.540;8.390;2022-09-09T06:51:33;24.10;99.90
4695;DHT22;2361;49.540;8.390;2022-09-09T06:54:01;23.20;99.90
4695;DHT22;2361;49.540;8.390;2022-09-09T06:59:00;21.90;99.90
4695;DHT22;2361;49.540;8.390;2022-09-09T07:01:32;21.30;99.90
4695;DHT22;2361;49.540;8.390;2022-09-09T07:04:01;20.70;99.90
4695;DHT22;2361;49.540;8.390;2022-09-09T07:06:31;20.90;99.90
4695;DHT22;2361;49.540;8.390;2022-09-09T07:09:01;21.60;99.90
4695;DHT22;2361;49.540;8.390;2022-09-09T07:11:38;21.40;99.90
4695;DHT22;2361;49.540;8.390;2022-09-09T07:14:08;21.00;99.90
4695;DHT22;2361;49.540;8.390;2022-09-09T07:16:35;20.50;99.90
4695;DHT22;2361;49.540;8.390;2022-09-09T07:19:04;20.40;99.90
4695;DHT22;2361;49.540;8.390;2022-09-09T07:21:32;20.00;99.90
4695;DHT22;2361;49.540;8.390;2022-09-09T07:23:59;19.70;99.90
4695;DHT22;2361;49.540;8.390;2022-09-09T07:26:29;19.50;99.90
4695;DHT22;2361;49.540;8.390;2022-09-09T07:28:57;19.40;99.90
4695;DHT22;2361;49.540;8.390;2022-09-09T07:31:29;19.30;99.90
4695;DHT22;2361;49.540;8.390;2022-09-09T07:33:58;19.20;99.90
4695;DHT22;2361;49.540;8.390;2022-09-09T07:36:29;19.50;99.90
4695;DHT22;2361;49.540;8.390;2022-09-09T07:39:02;19.50;99.90
4695;DHT22;2361;49.540;8.390;2022-09-09T07:41:39;19.60;99.90
4695;DHT22;2361;49.540;8.390;2022-09-09T07:44:09;19.60;99.90
4695;DHT22;2361;49.540;8.390;2022-09-09T07:46:38;19.70;99.90
4695;DHT22;2361;49.540;8.390;2022-09-09T07:49:08;20.20;99.90
4695;DHT22;2361;49.540;8.390;2022-09-09T07:51:38;20.50;99.90
4695;DHT22;2361;49.540;8.390;2022-09-09T07:54:09;20.40;99.90
4695;DHT22;2361;49.540;8.390;2022-09-09T07:56:38;20.50;99.90
4695;DHT22;2361;49.540;8.390;2022-09-09T07:59:10;20.30;99.90
4695;DHT22;2361;49.540;8.390;2022-09-09T08:01:40;20.40;99.90
4695;DHT22;2361;49.540;8.390;2022-09-09T08:04:17;20.20;99.90
4695;DHT22;2361;49.540;8.390;2022-09-09T08:06:47;20.10;99.90
4695;DHT22;2361;49.540;8.390;2022-09-09T08:09:16;19.90;99.90
4695;DHT22;2361;49.540;8.390;2022-09-09T08:11:43;19.70;99.90
4695;DHT22;2361;49.540;8.390;2022-09-09T08:14:11;19.50;99.90
4695;DHT22;2361;49.540;8.390;2022-09-09T08:16:41;19.20;99.90
4695;DHT22;2361;49.540;8.390;2022-09-09T08:19:10;18.90;99.90
4695;DHT22;2361;49.540;8.390;2022-09-09T08:21:39;18.80;99.90
4695;DHT22;2361;49.540;8.390;2022-09-09T08:24:08;18.80;99.90
4695;DHT22;2361;49.540;8.390;2022-09-09T08:26:39;18.80;99.90
4695;DHT22;2361;49.540;8.390;2022-09-09T08:29:09;18.90;99.90
4695;DHT22;2361;49.540;8.390;2022-09-09T08:31:39;18.90;99.90
4695;DHT22;2361;49.540;8.390;2022-09-09T08:34:08;19.10;99.90
4695;DHT22;2361;49.540;8.390;2022-09-09T08:36:40;19.20;99.90
4695;DHT22;2361;49.540;8.390;2022-09-09T08:39:14;19.60;99.90
4695;DHT22;2361;49.540;8.390;2022-09-09T08:50:31;23.90;99.90
4695;DHT22;2361;49.540;8.390;2022-09-09T08:53:05;25.90;99.90
4695;DHT22;2361;49.540;8.390;2022-09-09T08:58:26;28.80;94.60
4695;DHT22;2361;49.540;8.390;2022-09-09T09:13:13;29.60;89.40
4695;DHT22;2361;49.540;8.390;2022-09-09T09:15:44;28.20;90.00
4695;DHT22;2361;49.540;8.390;2022-09-09T09:18:17;27.30;91.70
4695;DHT22;2361;49.540;8.390;2022-09-09T09:23:45;26.40;92.70
4695;DHT22;2361;49.540;8.390;2022-09-09T09:26:18;26.80;93.00
4695;DHT22;2361;49.540;8.390;2022-09-09T09:28:46;27.40;91.90
4695;DHT22;2361;49.540;8.390;2022-09-09T09:31:13;27.40;92.20
4695;DHT22;2361;49.540;8.390;2022-09-09T09:36:08;28.10;90.80
4695;DHT22;2361;49.540;8.390;2022-09-09T09:38:36;27.90;90.40
4695;DHT22;2361;49.540;8.390;2022-09-09T09:41:41;26.80;91.20
4695;DHT22;2361;49.540;8.390;2022-09-09T09:44:27;26.10;92.70
4695;DHT22;2361;49.540;8.390;2022-09-09T09:47:35;26.40;93.00
4695;DHT22;2361;49.540;8.390;2022-09-09T09:50:02;27.80;90.60
4695;DHT22;2361;49.540;8.390;2022-09-09T09:52:32;27.30;90.50
4695;DHT22;2361;49.540;8.390;2022-09-09T09:55:03;26.10;92.30
4695;DHT22;2361;49.540;8.390;2022-09-09T09:57:33;24.30;94.90
4695;DHT22;2361;49.540;8.390;2022-09-09T10:00:14;23.40;97.30
4695;DHT22;2361;49.540;8.390;2022-09-09T10:02:46;22.70;99.60
4695;DHT22;2361;49.540;8.390;2022-09-09T10:05:20;22.20;99.90
4695;DHT22;2361;49.540;8.390;2022-09-09T10:08:08;21.80;99.90
4695;DHT22;2361;49.540;8.390;2022-09-09T10:17:00;21.90;99.90
4695;DHT22;2361;49.540;8.390;2022-09-09T10:19:37;22.10;99.90
4695;DHT22;2361;49.540;8.390;2022-09-09T10:30:46;26.00;97.40
4695;DHT22;2361;49.540;8.390;2022-09-09T10:34:11;27.00;94.90
4695;DHT22;2361;49.540;8.390;2022-09-09T10:36:47;26.30;95.30
4695;DHT22;2361;49.540;8.390;2022-09-09T10:39:37;25.70;96.10
4695;DHT22;2361;49.540;8.390;2022-09-09T10:42:13;25.20;96.90
4695;DHT22;2361;49.540;8.390;2022-09-09T10:56:07;23.00;99.90
4695;DHT22;2361;49.540;8.390;2022-09-09T10:58:58;22.80;99.90
4695;DHT22;2361;49.540;8.390;2022-09-09T11:01:40;22.60;99.90
4695;DHT22;2361;49.540;8.390;2022-09-09T11:04:17;22.50;99.90
4695;DHT22;2361;49.540;8.390;2022-09-09T11:06:54;22.60;99.90
4695;DHT22;2361;49.540;8.390;2022-09-09T11:09:25;22.60;99.90
4695;DHT22;2361;49.540;8.390;2022-09-09T11:11:56;22.60;99.90
4695;DHT22;2361;49.540;8.390;2022-09-09T11:14:37;22.60;99.90
4695;DHT22;2361;49.540;8.390;2022-09-09T11:17:26;22.70;99.90
4695;DHT22;2361;49.540;8.390;2022-09-09T11:20:00;22.40;99.90
4695;DHT22;2361;49.540;8.390;2022-09-09T11:22:36;22.50;99.90
4695;DHT22;2361;49.540;8.390;2022-09-09T11:28:15;22.40;99.90
4695;DHT22;2361;49.540;8.390;2022-09-09T11:34:08;22.30;99.90
4695;DHT22;2361;49.540;8.390;2022-09-09T11:44:47;22.00;99.90
4695;DHT22;2361;49.540;8.390;2022-09-09T11:47:24;22.00;99.90
4695;DHT22;2361;49.540;8.390;2022-09-09T11:52:46;21.90;99.90
4695;DHT22;2361;49.540;8.390;2022-09-09T11:55:29;21.90;99.90
4695;DHT22;2361;49.540;8.390;2022-09-09T11:58:00;21.90;99.90
4695;DHT22;2361;49.540;8.390;2022-09-09T12:00:44;22.00;99.90
4695;DHT22;2361;49.540;8.390;2022-09-09T12:11:44;22.20;99.90
4695;DHT22;2361;49.540;8.390;2022-09-09T12:14:54;22.10;99.90
4695;DHT22;2361;49.540;8.390;2022-09-09T12:17:42;21.90;99.90
4695;DHT22;2361;49.540;8.390;2022-09-09T12:28:44;20.70;99.90
4695;DHT22;2361;49.540;8.390;2022-09-09T12:34:17;20.70;99.90
4695;DHT22;2361;49.540;8.390;2022-09-09T12:36:51;20.90;99.90
4695;DHT22;2361;49.540;8.390;2022-09-09T12:39:34;21.30;99.90
4695;DHT22;2361;49.540;8.390;2022-09-09T12:42:04;21.70;99.90
4695;DHT22;2361;49.540;8.390;2022-09-09T12:44:31;22.00;99.90
4695;DHT22;2361;49.540;8.390;2022-09-09T12:47:01;22.10;99.90
4695;DHT22;2361;49.540;8.390;2022-09-09T12:49:37;22.20;99.90
4695;DHT22;2361;49.540;8.390;2022-09-09T12:52:25;22.40;99.90
4695;DHT22;2361;49.540;8.390;2022-09-09T12:54:58;22.50;99.90
4695;DHT22;2361;49.540;8.390;2022-09-09T12:57:26;22.50;99.90
4695;DHT22;2361;49.540;8.390;2022-09-09T13:00:26;22.30;99.90
4695;DHT22;2361;49.540;8.390;2022-09-09T13:02:56;22.10;99.90
4695;DHT22;2361;49.540;8.390;2022-09-09T13:05:27;22.00;99.90
4695;DHT22;2361;49.540;8.390;2022-09-09T13:08:08;22.00;99.90
4695;DHT22;2361;49.540;8.390;2022-09-09T13:13:38;22.00;99.90
4695;DHT22;2361;49.540;8.390;2022-09-09T13:16:18;22.00;99.90
4695;DHT22;2361;49.540;8.390;2022-09-09T13:18:47;21.70;99.90
4695;DHT22;2361;49.540;8.390;2022-09-09T13:21:14;21.80;99.90
4695;DHT22;2361;49.540;8.390;2022-09-09T13:23:41;21.90;99.90
4695;DHT22;2361;49.540;8.390;2022-09-09T13:26:26;22.10;99.90
4695;DHT22;2361;49.540;8.390;2022-09-09T13:28:53;22.10;99.90
4695;DHT22;2361;49.540;8.390;2022-09-09T13:31:33;22.10;99.90
4695;DHT22;2361;49.540;8.390;2022-09-09T13:34:28;22.10;99.90
4695;DHT22;2361;49.540;8.390;2022-09-09T13:37:09;22.00;99.90
4695;DHT22;2361;49.540;8.390;2022-09-09T13:39:59;22.00;99.90
4695;DHT22;2361;49.540;8.390;2022-09-09T13:42:30;22.00;99.90
4695;DHT22;2361;49.540;8.390;2022-09-09T13:44:59;22.00;99.90
4695;DHT22;2361;49.540;8.390;2022-09-09T13:47:32;22.10;99.90
4695;DHT22;2361;49.540;8.390;2022-09-09T13:50:22;22.20;99.90
4695;DHT22;2361;49.540;8.390;2022-09-09T13:52:51;22.30;99.90
4695;DHT22;2361;49.540;8.390;2022-09-09T13:55:22;22.00;99.90
4695;DHT22;2361;49.540;8.390;2022-09-09T13:58:02;21.80;99.90
4695;DHT22;2361;49.540;8.390;2022-09-09T14:00:33;21.70;99.90
4695;DHT22;2361;49.540;8.390;2022-09-09T14:03:01;21.70;99.90
4695;DHT22;2361;49.540;8.390;2022-09-09T14:05:31;21.70;99.90
4695;DHT22;2361;49.540;8.390;2022-09-09T14:08:00;21.60;99.90
4695;DHT22;2361;49.540;8.390;2022-09-09T14:10:27;21.70;99.90
4695;DHT22;2361;49.540;8.390;2022-09-09T14:12:54;21.70;99.90
4695;DHT22;2361;49.540;8.390;2022-09-09T14:15:21;21.70;99.90
4695;DHT22;2361;49.540;8.390;2022-09-09T14:17:48;21.60;99.90
4695;DHT22;2361;49.540;8.390;2022-09-09T14:20:15;21.40;99.90
4695;DHT22;2361;49.540;8.390;2022-09-09T14:22:43;21.30;99.90
4695;DHT22;2361;49.540;8.390;2022-09-09T14:25:10;21.20;99.90
4695;DHT22;2361;49.540;8.390;2022-09-09T14:27:40;21.10;99.90
4695;DHT22;2361;49.540;8.390;2022-09-09T14:30:07;21.10;99.90
4695;DHT22;2361;49.540;8.390;2022-09-09T14:32:35;21.20;99.90
4695;DHT22;2361;49.540;8.390;2022-09-09T14:35:02;21.10;99.90
4695;DHT22;2361;49.540;8.390;2022-09-09T14:37:29;21.10;99.90
4695;DHT22;2361;49.540;8.390;2022-09-09T14:39:57;21.20;99.90
4695;DHT22;2361;49.540;8.390;2022-09-09T14:42:25;21.20;99.90
4695;DHT22;2361;49.540;8.390;2022-09-09T14:44:53;21.20;99.90
4695;DHT22;2361;49.540;8.390;2022-09-09T14:47:19;21.30;99.90
4695;DHT22;2361;49.540;8.390;2022-09-09T14:49:46;21.30;99.90
4695;DHT22;2361;49.540;8.390;2022-09-09T14:52:16;21.30;99.90
4695;DHT22;2361;49.540;8.390;2022-09-09T14:54:46;21.20;99.90
4695;DHT22;2361;49.540;8.390;2022-09-09T14:57:13;21.20;99.90
4695;DHT22;2361;49.540;8.390;2022-09-09T14:59:40;21.20;99.90
4695;DHT22;2361;49.540;8.390;2022-09-09T15:02:08;21.20;99.90
4695;DHT22;2361;49.540;8.390;2022-09-09T15:04:35;21.20;99.90
4695;DHT22;2361;49.540;8.390;2022-09-09T15:07:02;21.20;99.90
4695;DHT22;2361;49.540;8.390;2022-09-09T15:09:29;21.20;99.90
4695;DHT22;2361;49.540;8.390;2022-09-09T15:11:56;21.20;99.90
4695;DHT22;2361;49.540;8.390;2022-09-09T15:14:23;21.10;99.90
4695;DHT22;2361;49.540;8.390;2022-09-09T15:16:51;21.00;99.90
4695;DHT22;2361;49.540;8.390;2022-09-09T15:19:18;21.00;99.90
4695;DHT22;2361;49.540;8.390;2022-09-09T15:21:45;20.80;99.90
4695;DHT22;2361;49.540;8.390;2022-09-09T15:24:12;20.60;99.90
4695;DHT22;2361;49.540;8.390;2022-09-09T15:26:40;20.40;99.90
4695;DHT22;2361;49.540;8.390;2022-09-09T15:29:07;20.30;99.90
4695;DHT22;2361;49.540;8.390;2022-09-09T15:31:35;20.00;99.90
4695;DHT22;2361;49.540;8.390;2022-09-09T15:34:05;19.80;99.90
4695;DHT22;2361;49.540;8.390;2022-09-09T15:36:37;19.70;99.90
4695;DHT22;2361;49.540;8.390;2022-09-09T15:39:10;19.50;99.90
4695;DHT22;2361;49.540;8.390;2022-09-09T15:41:39;19.40;99.90
4695;DHT22;2361;49.540;8.390;2022-09-09T15:44:06;19.30;99.90
4695;DHT22;2361;49.540;8.390;2022-09-09T15:46:36;19.10;99.90
4695;DHT22;2361;49.540;8.390;2022-09-09T15:49:18;19.10;99.90
4695;DHT22;2361;49.540;8.390;2022-09-09T15:51:57;19.20;99.90
4695;DHT22;2361;49.540;8.390;2022-09-09T15:54:25;19.30;99.90
4695;DHT22;2361;49.540;8.390;2022-09-09T15:57:03;19.40;99.90
4695;DHT22;2361;49.540;8.390;2022-09-09T15:59:31;19.50;99.90
4695;DHT22;2361;49.540;8.390;2022-09-09T16:02:00;19.70;99.90
4695;DHT22;2361;49.540;8.390;2022-09-09T16:04:28;19.80;99.90
4695;DHT22;2361;49.540;8.390;2022-09-09T16:06:58;19.90;99.90
4695;DHT22;2361;49.540;8.390;2022-09-09T16:09:30;20.10;99.90
4695;DHT22;2361;49.540;8.390;2022-09-09T16:11:58;20.30;99.90
4695;DHT22;2361;49.540;8.390;2022-09-09T16:14:27;20.30;99.90
4695;DHT22;2361;49.540;8.390;2022-09-09T16:16:54;20.40;99.90
4695;DHT22;2361;49.540;8.390;2022-09-09T16:19:24;20.40;99.90
4695;DHT22;2361;49.540;8.390;2022-09-09T16:21:52;20.30;99.90
4695;DHT22;2361;49.540;8.390;2022-09-09T16:24:19;20.30;99.90
4695;DHT22;2361;49.540;8.390;2022-09-09T16:26:48;20.20;99.90
4695;DHT22;2361;49.540;8.390;2022-09-09T16:29:19;20.20;99.90
4695;DHT22;2361;49.540;8.390;2022-09-09T16:31:48;20.20;99.90
4695;DHT22;2361;49.540;8.390;2022-09-09T16:34:17;20.10;99.90
4695;DHT22;2361;49.540;8.390;2022-09-09T16:36:45;20.10;99.90
4695;DHT22;2361;49.540;8.390;2022-09-09T16:39:15;20.10;99.90
4695;DHT22;2361;49.540;8.390;2022-09-09T16:41:44;20.10;99.90
4695;DHT22;2361;49.540;8.390;2022-09-09T16:44:13;20.10;99.90
4695;DHT22;2361;49.540;8.390;2022-09-09T16:46:43;20.00;99.90
4695;DHT22;2361;49.540;8.390;2022-09-09T16:49:12;19.90;99.90
4695;DHT22;2361;49.540;8.390;2022-09-09T16:51:42;19.80;99.90
4695;DHT22;2361;49.540;8.390;2022-09-09T16:54:16;19.70;99.90
4695;DHT22;2361;49.540;8.390;2022-09-09T16:56:46;19.60;99.90
4695;DHT22;2361;49.540;8.390;2022-09-09T16:59:16;19.60;99.90
4695;DHT22;2361;49.540;8.390;2022-09-09T17:01:45;19.50;99.90
4695;DHT22;2361;49.540;8.390;2022-09-09T17:04:41;19.40;99.90
4695;DHT22;2361;49.540;8.390;2022-09-09T17:07:08;19.30;99.90
4695;DHT22;2361;49.540;8.390;2022-09-09T17:09:36;19.20;99.90
4695;DHT22;2361;49.540;8.390;2022-09-09T17:12:03;19.10;99.90
4695;DHT22;2361;49.540;8.390;2022-09-09T17:14:30;19.10;99.90
4695;DHT22;2361;49.540;8.390;2022-09-09T17:16:57;19.00;99.90
4695;DHT22;2361;49.540;8.390;2022-09-09T17:19:44;19.10;99.90
4695;DHT22;2361;49.540;8.390;2022-09-09T17:22:11;19.10;99.90
4695;DHT22;2361;49.540;8.390;2022-09-09T17:24:43;19.10;99.90
4695;DHT22;2361;49.540;8.390;2022-09-09T17:27:10;19.10;99.90
4695;DHT22;2361;49.540;8.390;2022-09-09T17:29:39;19.00;99.90
4695;DHT22;2361;49.540;8.390;2022-09-09T17:32:06;19.00;99.90
4695;DHT22;2361;49.540;8.390;2022-09-09T17:34:34;19.00;99.90
4695;DHT22;2361;49.540;8.390;2022-09-09T17:37:01;19.00;99.90
4695;DHT22;2361;49.540;8.390;2022-09-09T17:39:28;18.90;99.90
4695;DHT22;2361;49.540;8.390;2022-09-09T17:41:58;18.90;99.90
4695;DHT22;2361;49.540;8.390;2022-09-09T17:44:27;19.00;99.90
4695;DHT22;2361;49.540;8.390;2022-09-09T17:46:55;19.10;99.90
4695;DHT22;2361;49.540;8.390;2022-09-09T17:49:22;19.00;99.90
4695;DHT22;2361;49.540;8.390;2022-09-09T17:51:49;19.00;99.90
4695;DHT22;2361;49.540;8.390;2022-09-09T17:54:18;19.00;99.90
4695;DHT22;2361;49.540;8.390;2022-09-09T17:56:47;18.90;99.90
4695;DHT22;2361;49.540;8.390;2022-09-09T17:59:15;18.70;99.90
4695;DHT22;2361;49.540;8.390;2022-09-09T18:01:45;18.70;99.90
4695;DHT22;2361;49.540;8.390;2022-09-09T18:04:15;18.60;99.90
4695;DHT22;2361;49.540;8.390;2022-09-09T18:06:45;18.50;99.90
4695;DHT22;2361;49.540;8.390;2022-09-09T18:09:18;18.40;99.90
4695;DHT22;2361;49.540;8.390;2022-09-09T18:11:49;18.30;99.90
4695;DHT22;2361;49.540;8.390;2022-09-09T18:14:30;18.20;99.90
4695;DHT22;2361;49.540;8.390;2022-09-09T18:16:59;18.00;99.90
4695;DHT22;2361;49.540;8.390;2022-09-09T18:19:29;17.90;99.90
4695;DHT22;2361;49.540;8.390;2022-09-09T18:21:57;17.80;99.90
4695;DHT22;2361;49.540;8.390;2022-09-09T18:24:28;17.60;99.90
4695;DHT22;2361;49.540;8.390;2022-09-09T18:26:56;17.40;99.90
4695;DHT22;2361;49.540;8.390;2022-09-09T18:29:23;17.30;99.90
4695;DHT22;2361;49.540;8.390;2022-09-09T18:31:52;17.20;99.90
4695;DHT22;2361;49.540;8.390;2022-09-09T18:34:21;17.00;99.90
4695;DHT22;2361;49.540;8.390;2022-09-09T18:36:50;16.80;99.90
4695;DHT22;2361;49.540;8.390;2022-09-09T18:39:20;16.80;99.90
4695;DHT22;2361;49.540;8.390;2022-09-09T18:41:52;16.80;99.90
4695;DHT22;2361;49.540;8.390;2022-09-09T18:44:23;16.70;99.90
4695;DHT22;2361;49.540;8.390;2022-09-09T18:46:52;16.70;99.90
4695;DHT22;2361;49.540;8.390;2022-09-09T18:49:21;16.80;99.90
4695;DHT22;2361;49.540;8.390;2022-09-09T18:51:49;16.80;99.90
4695;DHT22;2361;49.540;8.390;2022-09-09T18:54:22;16.80;99.90
4695;DHT22;2361;49.540;8.390;2022-09-09T18:56:51;16.80;99.90